CST,Max TemperatureF,Mean TemperatureF,Min TemperatureF,Max Dew PointF,MeanDew PointF,Min DewpointF,Max Humidity, Mean Humidity, Min Humidity, Max Sea Level PressureIn, Mean Sea Level PressureIn, Min Sea Level PressureIn, Max VisibilityMiles, Mean VisibilityMiles, Min VisibilityMiles, Max Wind SpeedMPH, Mean Wind SpeedMPH, Max Gust SpeedMPH,PrecipitationIn, CloudCover, Events, WindDirDegrees
2014-2-1,53,40,28,50,33,25,93,87,81,30.09,29.88,29.73,10,4,1,14,7,20,0.09,8,,342
2014-2-2,28,22,12,23,18,9,86,78,68,30.25,30.18,30.08,10,7,0,16,11,24,0.06,6,,23
2014-2-3,37,22,6,19,12,1,93,63,41,30.27,30.20,30.09,10,9,0,13,4,,0.04,1,,72
2014-2-4,30,27,24,28,21,10,93,74,47,30.10,29.95,29.84,10,6,1,20,10,29,0.15,7,,86
2014-2-5,28,18,8,25,8,0,86,71,58,30.53,30.37,29.99,10,8,3,18,12,23,0.02,5,,339
2014-2-6,15,10,6,1,-1,-2,72,62,49,30.55,30.48,30.38,10,10,7,14,10,17,0.00,1,,30
2014-2-7,26,17,8,18,9,-2,74,63,55,30.37,30.28,30.18,10,10,10,8,5,,0.00,6,,120
2014-2-8,33,28,24,28,23,18,93,79,70,30.18,30.11,30.02,10,8,2,8,4,,0.00,8,,185
2014-2-9,32,29,26,28,24,19,93,79,69,30.21,30.14,30.09,10,7,3,14,6,18,0.00,8,,34
2014-2-10,28,24,19,19,13,7,80,67,54,30.33,30.28,30.22,10,9,5,17,11,22,0.00,6,,33
2014-2-11,35,26,17,10,7,5,63,49,30,30.38,30.29,30.20,10,10,10,13,8,,0.00,0,,68
2014-2-12,42,28,15,21,14,5,79,54,35,30.19,30.07,29.97,10,10,10,8,3,,0.00,0,,229
2014-2-13,53,38,23,28,24,18,86,62,35,29.98,29.89,29.79,10,8,3,14,5,18,0.00,0,,219
2014-2-14,51,38,26,37,29,21,80,62,38,30.10,29.85,29.64,10,10,10,26,8,37,0.00,2,,313
2014-2-15,57,39,21,28,24,16,86,57,31,30.09,30.02,29.89,10,10,7,22,6,29,0.00,1,,196
2014-2-16,62,45,28,32,27,23,86,50,25,30.12,30.03,29.90,10,10,7,18,4,20,0.00,1,,106
2014-2-17,59,48,37,45,32,23,72,49,27,30.13,29.98,29.79,10,10,10,24,11,32,0.00,3,,223
2014-2-18,68,49,30,34,28,21,75,47,24,30.10,29.94,29.78,10,10,10,22,6,30,0.00,0,,195
2014-2-19,68,54,41,54,36,23,77,51,23,30.00,29.86,29.62,10,10,10,18,10,24,0.00,2,,125
2014-2-20,71,54,37,55,40,18,77,59,34,29.96,29.69,29.47,10,10,9,29,16,43,0.00,5,,235
2014-2-21,59,44,28,21,16,12,60,34,16,30.04,29.99,29.94,10,10,10,18,8,25,0.00,0,,227
2014-2-22,66,50,35,30,24,16,52,34,24,29.98,29.91,29.80,10,10,10,22,9,28,0.00,0,,177
2014-2-23,51,42,33,30,25,16,75,54,34,30.22,30.06,29.87,10,10,7,18,8,25,0.00,2,,38
2014-2-24,51,40,28,23,17,12,60,41,27,30.26,30.16,30.05,10,10,10,14,7,,0.00,3,,97
2014-2-25,44,34,24,25,18,12,59,46,34,30.26,30.17,30.13,10,10,10,23,8,31,0.00,5,,16
2014-2-26,33,24,15,10,5,0,73,48,23,30.30,30.20,30.05,10,10,4,24,12,28,0.00,2,,335
2014-2-27,50,34,17,18,10,1,63,40,22,30.08,29.99,29.88,10,10,3,9,4,,0.00,0,,163
2014-2-28,44,38,32,34,26,16,81,61,42,29.98,29.86,29.80,10,10,10,17,10,23,0.03,5,,135